createdAt,value
2019-04-22T00:01:04.793Z,18.30
2019-04-22T00:03:39.145Z,18.20
2019-04-22T00:06:27.408Z,18.30
2019-04-22T00:08:56.034Z,18.20
2019-04-22T00:11:30.344Z,18.10
2019-04-22T00:13:56.950Z,18.10
2019-04-22T00:16:33.900Z,18.10
2019-04-22T00:21:35.313Z,17.90
2019-04-22T00:23:58.551Z,17.80
2019-04-22T00:26:28.989Z,17.90
2019-04-22T00:29:14.500Z,18.00
2019-04-22T00:31:41.676Z,18.00
2019-04-22T00:34:14.152Z,18.00
2019-04-22T00:36:43.775Z,18.00
2019-04-22T00:39:22.089Z,18.00
2019-04-22T00:41:50.547Z,18.00
2019-04-22T00:44:20.494Z,17.90
2019-04-22T00:46:46.800Z,18.00
2019-04-22T00:50:03.682Z,17.90
2019-04-22T00:51:52.632Z,18.10
2019-04-22T00:54:17.702Z,18.10
2019-04-22T00:56:47.767Z,18.10
2019-04-22T00:59:17.354Z,18.00
2019-04-22T01:01:42.990Z,18.00
2019-04-22T01:04:27.972Z,18.00
2019-04-22T01:06:45.911Z,17.90
2019-04-22T01:09:17.462Z,17.90
2019-04-22T01:11:45.371Z,17.90
2019-04-22T01:14:21.969Z,17.90
2019-04-22T01:17:00.094Z,17.80
2019-04-22T01:19:29.642Z,18.00
2019-04-22T01:22:03.072Z,17.90
2019-04-22T01:24:28.070Z,17.90
2019-04-22T01:26:53.518Z,17.70
2019-04-22T01:29:22.598Z,17.60
2019-04-22T01:31:47.396Z,17.60
2019-04-22T01:34:33.440Z,17.60
2019-04-22T01:40:00.149Z,17.60
2019-04-22T01:42:28.610Z,17.30
2019-04-22T01:44:58.184Z,17.40
2019-04-22T01:47:36.760Z,17.20
2019-04-22T01:50:10.069Z,17.20
2019-04-22T01:52:41.668Z,17.30
2019-04-22T01:57:35.272Z,17.10
2019-04-22T02:00:01.062Z,17.10
2019-04-22T02:02:44.088Z,17.20
2019-04-22T02:05:13.413Z,17.20
2019-04-22T02:07:42.390Z,17.20
2019-04-22T02:10:26.858Z,17.20
2019-04-22T02:12:45.932Z,17.20
2019-04-22T02:15:17.404Z,17.20
2019-04-22T02:18:10.657Z,17.20
2019-04-22T02:20:18.402Z,17.20
2019-04-22T02:23:40.250Z,17.20
2019-04-22T02:25:56.055Z,17.10
2019-04-22T02:28:32.513Z,17.00
2019-04-22T02:36:18.592Z,17.10
2019-04-22T02:46:22.919Z,17.20
2019-04-22T02:58:55.135Z,16.90
2019-04-22T03:01:27.523Z,16.80
2019-04-22T03:06:29.015Z,16.70
2019-04-22T03:08:45.577Z,16.60
2019-04-22T03:11:19.046Z,16.50
2019-04-22T03:26:35.074Z,16.40
2019-04-22T03:31:57.932Z,16.30
2019-04-22T03:34:57.629Z,16.20
2019-04-22T03:46:53.661Z,15.90
2019-04-22T03:59:26.928Z,15.90
2019-04-22T04:01:50.940Z,15.90
2019-04-22T04:04:32.921Z,15.80
2019-04-22T04:09:33.896Z,15.90
2019-04-22T04:12:03.572Z,15.90
2019-04-22T04:14:44.560Z,16.10
2019-04-22T04:17:14.607Z,15.90
2019-04-22T04:22:08.001Z,16.00
2019-04-22T04:27:22.806Z,16.10
2019-04-22T04:29:51.423Z,16.20
2019-04-22T04:32:24.949Z,16.20
2019-04-22T04:34:56.286Z,16.20
2019-04-22T04:37:17.881Z,16.10
2019-04-22T04:39:51.058Z,16.00
2019-04-22T04:44:59.042Z,16.20
2019-04-22T04:47:25.927Z,15.90
2019-04-22T04:49:43.575Z,15.90
2019-04-22T04:52:19.344Z,15.90
2019-04-22T04:54:51.934Z,15.90
2019-04-22T04:57:14.861Z,16.00
2019-04-22T05:00:06.008Z,16.00
2019-04-22T05:02:20.166Z,16.10
2019-04-22T05:09:47.343Z,16.20
2019-04-22T05:14:48.860Z,16.40
2019-04-22T05:17:25.514Z,16.40
2019-04-22T05:19:56.851Z,16.30
2019-04-22T05:22:23.200Z,16.30
2019-04-22T05:24:56.236Z,16.30
2019-04-22T05:27:29.450Z,16.50
2019-04-22T05:30:07.508Z,16.60
2019-04-22T05:32:24.644Z,16.70
2019-04-22T05:34:54.036Z,16.70
2019-04-22T05:39:49.674Z,16.70
2019-04-22T05:42:18.101Z,16.80
2019-04-22T05:44:54.995Z,16.60
2019-04-22T05:47:22.484Z,16.70
2019-04-22T05:49:47.734Z,16.90
2019-04-22T05:52:21.235Z,17.00
2019-04-22T05:54:55.034Z,16.90
2019-04-22T05:57:26.124Z,17.00
2019-04-22T06:00:18.330Z,17.10
2019-04-22T06:02:32.526Z,17.20
2019-04-22T06:04:59.179Z,17.30
2019-04-22T06:07:29.697Z,17.40
2019-04-22T06:10:08.375Z,17.60
2019-04-22T06:12:26.544Z,17.60
2019-04-22T06:15:03.775Z,17.70
2019-04-22T06:20:12.235Z,17.70
2019-04-22T06:22:56.789Z,17.70
2019-04-22T06:25:43.409Z,17.70
2019-04-22T06:27:42.430Z,17.70
2019-04-22T06:30:18.470Z,17.70
2019-04-22T06:32:39.810Z,17.80
2019-04-22T06:35:27.962Z,18.00
2019-04-22T06:37:55.069Z,18.20
2019-04-22T06:40:19.817Z,18.30
2019-04-22T06:42:51.911Z,18.50
2019-04-22T06:45:21.892Z,18.60
2019-04-22T06:50:30.285Z,18.60
2019-04-22T06:52:48.078Z,18.60
2019-04-22T06:55:24.847Z,18.60
2019-04-22T06:57:43.634Z,18.70
2019-04-22T07:03:27.148Z,18.90
2019-04-22T07:05:28.507Z,19.00
2019-04-22T07:08:05.588Z,19.10
2019-04-22T07:12:54.266Z,19.20
2019-04-22T07:15:42.392Z,19.20
2019-04-22T07:18:04.251Z,19.20
2019-04-22T07:20:30.548Z,19.30
2019-04-22T07:23:06.776Z,19.30
2019-04-22T07:25:29.537Z,19.40
2019-04-22T07:27:58.553Z,19.40
2019-04-22T07:30:31.307Z,19.50
2019-04-22T07:35:44.376Z,19.40
2019-04-22T07:38:14.349Z,19.60
2019-04-22T07:40:40.546Z,19.70
2019-04-22T07:43:04.401Z,20.00
2019-04-22T07:45:40.852Z,20.20
2019-04-22T07:48:18.888Z,20.20
2019-04-22T07:50:49.331Z,20.30
2019-04-22T07:53:08.370Z,20.60
2019-04-22T07:55:39.852Z,20.70
2019-04-22T07:58:11.838Z,20.90
2019-04-22T08:00:39.028Z,20.90
2019-04-22T08:03:19.462Z,20.90
2019-04-22T08:05:51.911Z,21.20
2019-04-22T08:08:21.491Z,21.50
2019-04-22T08:10:48.499Z,21.40
2019-04-22T08:13:11.676Z,21.40
2019-04-22T08:15:48.581Z,21.60
2019-04-22T08:18:22.168Z,21.80
2019-04-22T08:20:52.824Z,21.90
2019-04-22T08:23:16.349Z,21.90
2019-04-22T08:25:44.231Z,21.90
2019-04-22T08:28:19.034Z,21.90
2019-04-22T08:30:54.839Z,22.20
2019-04-22T08:33:22.115Z,22.60
2019-04-22T08:36:07.211Z,22.80
2019-04-22T08:38:36.751Z,23.10
2019-04-22T08:44:02.331Z,23.10
2019-04-22T08:46:34.111Z,23.30
2019-04-22T08:51:30.999Z,23.60
2019-04-22T08:59:28.397Z,23.10
2019-04-22T09:02:02.794Z,23.30
2019-04-22T09:04:27.855Z,23.40
2019-04-22T09:07:20.293Z,23.70
2019-04-22T09:09:37.911Z,24.10
2019-04-22T09:12:08.223Z,24.40
2019-04-22T09:14:37.941Z,24.30
2019-04-22T09:17:13.356Z,24.50
2019-04-22T09:19:34.052Z,24.40
2019-04-22T09:24:38.722Z,24.60
2019-04-22T09:27:11.555Z,24.30
2019-04-22T09:30:01.676Z,24.30
2019-04-22T09:32:36.324Z,24.30
2019-04-22T09:34:58.919Z,24.70
2019-04-22T09:37:34.604Z,25.10
2019-04-22T09:40:09.189Z,25.30
2019-04-22T09:42:32.285Z,25.00
2019-04-22T09:44:59.193Z,24.80
2019-04-22T09:47:36.827Z,24.70
2019-04-22T09:50:03.693Z,24.70
2019-04-22T09:52:28.021Z,25.00
2019-04-22T09:55:09.563Z,25.40
2019-04-22T09:57:31.507Z,25.70
2019-04-22T10:00:09.803Z,25.50
2019-04-22T10:05:07.844Z,25.60
2019-04-22T10:07:39.496Z,25.70
2019-04-22T10:10:10.848Z,25.80
2019-04-22T10:12:36.517Z,25.80
2019-04-22T10:14:59.836Z,25.80
2019-04-22T10:17:32.437Z,25.70
2019-04-22T10:20:07.199Z,25.60
2019-04-22T10:22:44.001Z,25.80
2019-04-22T10:25:08.698Z,25.80
2019-04-22T10:27:32.737Z,25.70
2019-04-22T10:30:03.032Z,25.80
2019-04-22T10:32:37.622Z,25.70
2019-04-22T10:35:05.049Z,25.70
2019-04-22T10:37:30.369Z,25.50
2019-04-22T10:40:02.938Z,25.50
2019-04-22T10:45:12.379Z,25.80
2019-04-22T10:47:42.376Z,25.90
2019-04-22T10:50:12.479Z,26.20
2019-04-22T10:52:43.509Z,26.50
2019-04-22T10:55:17.143Z,26.80
2019-04-22T10:57:46.858Z,26.90
2019-04-22T11:00:19.998Z,27.30
2019-04-22T11:02:49.735Z,27.60
2019-04-22T11:05:19.965Z,27.60
2019-04-22T11:07:53.794Z,27.50
2019-04-22T11:10:35.384Z,27.80
2019-04-22T11:12:51.496Z,27.70
2019-04-22T11:15:22.437Z,27.80
2019-04-22T11:17:51.642Z,28.00
2019-04-22T11:20:21.811Z,28.00
2019-04-22T11:22:51.136Z,28.50
2019-04-22T11:25:23.639Z,28.50
2019-04-22T11:27:53.738Z,28.30
2019-04-22T11:30:25.941Z,28.10
2019-04-22T11:32:54.206Z,27.90
2019-04-22T11:35:23.716Z,28.00
2019-04-22T11:37:56.826Z,28.40
2019-04-22T11:40:33.818Z,28.50
2019-04-22T11:42:56.581Z,28.60
2019-04-22T11:45:27.072Z,28.60
2019-04-22T11:47:57.243Z,28.80
2019-04-22T11:50:26.431Z,29.00
2019-04-22T11:52:55.333Z,29.30
2019-04-22T11:55:24.591Z,29.40
2019-04-22T11:57:54.018Z,29.40
2019-04-22T12:00:27.025Z,29.30
2019-04-22T12:02:56.763Z,29.10
2019-04-22T12:05:28.051Z,29.40
2019-04-22T12:08:15.503Z,29.70
2019-04-22T12:10:51.575Z,29.80
2019-04-22T12:13:15.823Z,29.50
2019-04-22T12:15:44.845Z,29.30
2019-04-22T12:18:15.282Z,29.30
2019-04-22T12:20:45.419Z,29.40
2019-04-22T12:23:14.806Z,29.50
2019-04-22T12:25:52.504Z,29.50
2019-04-22T12:28:15.042Z,30.00
2019-04-22T12:30:44.018Z,30.40
2019-04-22T12:33:14.771Z,30.30
2019-04-22T12:35:44.226Z,30.70
2019-04-22T12:38:16.216Z,30.90
2019-04-22T12:40:51.193Z,30.90
2019-04-22T12:43:16.147Z,31.10
2019-04-22T12:45:44.766Z,30.60
2019-04-22T12:48:14.848Z,30.50
2019-04-22T12:50:45.928Z,30.50
2019-04-22T12:53:18.027Z,30.40
2019-04-22T12:55:45.916Z,30.50
2019-04-22T12:58:15.783Z,30.70
2019-04-22T13:00:44.977Z,30.70
2019-04-22T13:03:13.909Z,30.40
2019-04-22T13:05:43.091Z,30.30
2019-04-22T13:08:11.759Z,31.00
2019-04-22T13:10:51.360Z,31.40
2019-04-22T13:13:11.299Z,31.60
2019-04-22T13:15:41.277Z,31.80
2019-04-22T13:18:20.777Z,31.30
2019-04-22T13:20:40.401Z,31.30
2019-04-22T13:23:09.503Z,31.30
2019-04-22T13:25:38.902Z,31.70
2019-04-22T13:28:11.356Z,31.50
2019-04-22T13:30:41.240Z,31.80
2019-04-22T13:33:14.672Z,32.40
2019-04-22T13:35:42.025Z,32.50
2019-04-22T13:38:11.243Z,33.30
2019-04-22T13:40:55.865Z,33.40
2019-04-22T13:43:11.115Z,33.00
2019-04-22T13:45:40.779Z,33.10
2019-04-22T13:48:29.252Z,33.30
2019-04-22T13:56:10.620Z,33.50
2019-04-22T13:58:31.549Z,33.40
2019-04-22T14:00:49.421Z,33.80
2019-04-22T14:03:37.893Z,34.80
2019-04-22T14:06:09.051Z,35.60
2019-04-22T14:08:37.656Z,35.60
2019-04-22T14:11:20.724Z,35.60
2019-04-22T14:13:37.712Z,35.40
2019-04-22T14:16:08.883Z,34.30
2019-04-22T14:18:39.023Z,33.70
2019-04-22T14:21:09.115Z,34.10
2019-04-22T14:23:38.439Z,33.60
2019-04-22T14:26:07.333Z,33.40
2019-04-22T14:28:37.368Z,32.90
2019-04-22T14:31:06.735Z,32.60
2019-04-22T14:33:36.298Z,32.90
2019-04-22T14:36:05.333Z,33.00
2019-04-22T14:38:34.722Z,32.70
2019-04-22T14:41:03.959Z,33.40
2019-04-22T14:44:00.677Z,33.80
2019-04-22T14:46:29.221Z,34.20
2019-04-22T14:48:56.046Z,33.30
2019-04-22T14:51:23.933Z,33.10
2019-04-22T14:53:50.228Z,33.00
2019-04-22T14:56:04.454Z,32.20
2019-04-22T14:58:33.181Z,31.60
2019-04-22T15:01:03.218Z,31.40
2019-04-22T15:03:31.837Z,31.10
2019-04-22T15:06:02.084Z,31.30
2019-04-22T15:08:31.092Z,31.10
2019-04-22T15:11:00.175Z,30.90
2019-04-22T15:13:29.396Z,30.90
2019-04-22T15:16:03.166Z,30.90
2019-04-22T15:18:33.631Z,31.10
2019-04-22T15:21:04.970Z,31.20
2019-04-22T15:23:34.821Z,31.20
2019-04-22T15:26:04.601Z,31.00
2019-04-22T15:28:33.476Z,31.30
2019-04-22T15:31:03.490Z,31.70
2019-04-22T15:33:33.075Z,31.80
2019-04-22T15:36:01.802Z,31.60
2019-04-22T15:38:32.274Z,31.30
2019-04-22T15:41:02.742Z,31.20
2019-04-22T15:43:35.172Z,31.20
2019-04-22T15:46:03.913Z,31.50
2019-04-22T15:48:34.110Z,31.50
2019-04-22T15:51:02.977Z,31.00
2019-04-22T15:53:31.772Z,31.00
2019-04-22T15:56:00.775Z,30.90
2019-04-22T15:58:31.171Z,30.70
2019-04-22T16:01:08.758Z,30.70
2019-04-22T16:03:30.336Z,30.50
2019-04-22T16:06:02.011Z,30.70
2019-04-22T16:08:33.408Z,30.60
2019-04-22T16:11:00.057Z,30.70
2019-04-22T16:13:32.038Z,30.50
2019-04-22T16:15:58.881Z,30.80
2019-04-22T16:18:28.410Z,30.40
2019-04-22T16:20:58.691Z,30.10
2019-04-22T16:23:44.735Z,29.90
2019-04-22T16:26:22.080Z,29.70
2019-04-22T16:28:53.749Z,29.30
2019-04-22T16:31:21.751Z,29.10
2019-04-22T16:33:50.515Z,29.00
2019-04-22T16:36:20.659Z,28.70
2019-04-22T16:38:50.859Z,28.80
2019-04-22T16:41:21.001Z,28.90
2019-04-22T16:43:50.781Z,29.00
2019-04-22T16:46:19.608Z,29.20
2019-04-22T16:48:49.570Z,29.40
2019-04-22T16:51:18.431Z,29.20
2019-04-22T16:53:47.484Z,29.00
2019-04-22T16:56:17.068Z,28.90
2019-04-22T16:58:46.538Z,29.10
2019-04-22T17:01:32.669Z,29.00
2019-04-22T17:04:14.923Z,29.10
2019-04-22T17:06:45.559Z,29.10
2019-04-22T17:09:17.429Z,28.90
2019-04-22T17:11:47.954Z,29.00
2019-04-22T17:14:23.992Z,29.00
2019-04-22T17:16:48.574Z,28.80
2019-04-22T17:19:17.713Z,28.80
2019-04-22T17:21:47.562Z,28.70
2019-04-22T17:24:17.459Z,28.60
2019-04-22T17:26:46.410Z,28.60
2019-04-22T17:29:16.626Z,28.30
2019-04-22T17:31:52.182Z,28.40
2019-04-22T17:34:15.897Z,28.50
2019-04-22T17:36:46.255Z,28.20
2019-04-22T17:39:30.234Z,28.10
2019-04-22T17:42:01.995Z,28.00
2019-04-22T17:44:58.520Z,28.10
2019-04-22T17:47:02.525Z,27.90
2019-04-22T17:49:51.060Z,27.80
2019-04-22T17:52:25.800Z,27.50
2019-04-22T17:54:50.375Z,27.50
2019-04-22T17:57:21.731Z,27.40
2019-04-22T17:59:51.817Z,27.20
2019-04-22T18:02:22.526Z,27.10
2019-04-22T18:04:46.005Z,27.00
2019-04-22T18:15:14.905Z,26.60
2019-04-22T18:17:57.042Z,26.40
2019-04-22T18:20:16.674Z,26.40
2019-04-22T18:22:38.151Z,26.40
2019-04-22T18:25:11.519Z,26.30
2019-04-22T18:27:57.354Z,26.10
2019-04-22T18:30:16.647Z,26.00
2019-04-22T18:32:52.123Z,25.80
2019-04-22T18:35:14.211Z,25.80
2019-04-22T18:37:50.002Z,25.80
2019-04-22T18:40:18.246Z,25.70
2019-04-22T18:42:55.316Z,25.50
2019-04-22T18:45:35.771Z,25.30
2019-04-22T18:47:45.581Z,25.20
2019-04-22T18:50:26.534Z,25.20
2019-04-22T18:52:54.557Z,25.00
2019-04-22T18:55:32.271Z,25.10
2019-04-22T18:58:02.958Z,24.90
2019-04-22T19:00:21.367Z,24.70
2019-04-22T19:02:55.785Z,24.60
2019-04-22T19:05:35.888Z,24.60
2019-04-22T19:08:18.325Z,24.30
2019-04-22T19:10:51.798Z,24.50
2019-04-22T19:13:49.051Z,24.30
2019-04-22T19:15:54.196Z,24.40
2019-04-22T19:18:29.115Z,24.30
2019-04-22T19:20:51.609Z,24.30
2019-04-22T19:23:20.859Z,24.10
2019-04-22T19:25:42.140Z,24.30
2019-04-22T19:28:26.921Z,24.20
2019-04-22T19:30:51.282Z,24.10
2019-04-22T19:33:18.954Z,24.00
2019-04-22T19:35:43.507Z,23.90
2019-04-22T19:38:12.197Z,24.00
2019-04-22T19:41:03.116Z,23.90
2019-04-22T19:43:22.655Z,23.90
2019-04-22T19:45:46.014Z,23.80
2019-04-22T19:48:31.003Z,23.50
2019-04-22T19:51:01.468Z,23.30
2019-04-22T19:53:26.163Z,23.30
2019-04-22T19:55:52.468Z,23.40
2019-04-22T19:58:20.089Z,23.30
2019-04-22T20:00:49.182Z,23.30
2019-04-22T20:03:50.874Z,23.20
2019-04-22T20:06:33.537Z,22.80
2019-04-22T20:09:13.875Z,22.80
2019-04-22T20:11:49.456Z,22.70
2019-04-22T20:14:43.583Z,22.60
2019-04-22T20:17:07.972Z,22.70
2019-04-22T20:19:45.908Z,22.60
2019-04-22T20:22:17.618Z,22.50
2019-04-22T20:24:43.360Z,22.30
2019-04-22T20:27:23.909Z,22.40
2019-04-22T20:29:56.369Z,22.50
2019-04-22T20:32:21.869Z,22.40
2019-04-22T20:34:57.654Z,22.40
2019-04-22T20:37:30.062Z,22.40
2019-04-22T20:39:52.491Z,22.30
2019-04-22T20:42:35.616Z,22.30
2019-04-22T20:44:56.721Z,22.20
2019-04-22T20:47:21.730Z,22.20
2019-04-22T20:50:04.486Z,22.10
2019-04-22T20:52:36.711Z,21.90
2019-04-22T20:54:54.439Z,21.70
2019-04-22T20:57:31.939Z,21.80
2019-04-22T20:59:55.631Z,21.90
2019-04-22T21:02:23.909Z,21.80
2019-04-22T21:04:49.055Z,21.90
2019-04-22T21:07:28.190Z,21.90
2019-04-22T21:09:57.785Z,21.90
2019-04-22T21:12:26.535Z,21.90
2019-04-22T21:15:10.678Z,21.80
2019-04-22T21:17:36.574Z,21.70
2019-04-22T21:20:10.469Z,21.50
2019-04-22T21:22:33.553Z,21.40
2019-04-22T21:25:03.552Z,21.50
2019-04-22T21:27:42.685Z,21.50
2019-04-22T21:29:58.612Z,21.30
2019-04-22T21:32:34.202Z,21.00
2019-04-22T21:35:16.327Z,21.10
2019-04-22T21:37:58.341Z,20.90
2019-04-22T21:40:05.237Z,20.80
2019-04-22T21:42:47.289Z,20.80
2019-04-22T21:45:07.264Z,20.70
2019-04-22T21:47:51.845Z,20.70
2019-04-22T21:50:28.200Z,20.60
2019-04-22T21:52:40.465Z,20.50
2019-04-22T21:55:16.085Z,20.40
2019-04-22T21:57:54.682Z,20.20
2019-04-22T22:00:27.767Z,20.20
2019-04-22T22:02:45.547Z,20.20
2019-04-22T22:05:12.617Z,19.90
2019-04-22T22:07:29.173Z,19.90
2019-04-22T22:10:15.036Z,19.90
2019-04-22T22:12:52.463Z,20.00
2019-04-22T22:15:23.116Z,20.00
2019-04-22T22:17:48.377Z,20.20
2019-04-22T22:20:14.631Z,20.20
2019-04-22T22:22:52.568Z,20.30
2019-04-22T22:25:21.178Z,20.30
2019-04-22T22:27:44.374Z,20.40
2019-04-22T22:30:40.099Z,20.40
2019-04-22T22:32:55.158Z,20.30
2019-04-22T22:35:20.694Z,20.30
2019-04-22T22:37:51.757Z,20.30
2019-04-22T22:40:07.511Z,20.20
2019-04-22T22:42:36.993Z,20.30
2019-04-22T22:45:13.871Z,20.10
2019-04-22T22:47:53.616Z,20.00
2019-04-22T22:50:23.316Z,20.00
2019-04-22T22:53:02.336Z,19.90
2019-04-22T22:55:22.297Z,20.10
2019-04-22T22:58:01.331Z,19.80
2019-04-22T23:00:22.506Z,19.80
2019-04-22T23:03:12.402Z,19.80
2019-04-22T23:05:33.395Z,19.80
2019-04-22T23:08:04.427Z,19.80
2019-04-22T23:10:34.128Z,19.80
2019-04-22T23:13:09.967Z,19.70
2019-04-22T23:15:27.701Z,19.30
2019-04-22T23:17:41.436Z,19.40
2019-04-22T23:20:11.733Z,19.30
2019-04-22T23:23:04.420Z,19.40
2019-04-22T23:25:33.344Z,19.30
2019-04-22T23:27:56.661Z,19.00
2019-04-22T23:30:38.285Z,19.00
2019-04-22T23:33:20.076Z,19.00
2019-04-22T23:35:52.863Z,18.80
2019-04-22T23:38:35.744Z,19.00
2019-04-22T23:41:09.321Z,19.10
2019-04-22T23:43:46.443Z,18.90
2019-04-22T23:46:08.244Z,19.20
2019-04-22T23:48:27.972Z,19.30
2019-04-22T23:51:09.236Z,19.00
2019-04-22T23:53:58.069Z,19.00
2019-04-22T23:56:07.905Z,18.60
